createdAt,value
2022-11-09T00:04:16.730Z,14.80
2022-11-09T00:09:18.551Z,14.80
2022-11-09T00:14:20.910Z,14.70
2022-11-09T00:19:23.110Z,14.70
2022-11-09T00:24:24.849Z,14.70
2022-11-09T00:29:26.584Z,14.50
2022-11-09T00:34:28.322Z,14.60
2022-11-09T00:39:30.315Z,14.60
2022-11-09T00:44:32.015Z,14.50
2022-11-09T00:49:33.777Z,14.30
2022-11-09T00:54:35.654Z,14.40
2022-11-09T00:59:37.523Z,14.30
2022-11-09T01:04:39.275Z,14.30
2022-11-09T01:09:41.024Z,14.30
2022-11-09T01:14:42.954Z,14.20
2022-11-09T01:19:45.396Z,14.20
2022-11-09T01:24:47.268Z,14.20
2022-11-09T01:29:48.988Z,14.20
2022-11-09T01:34:50.708Z,14.10
2022-11-09T01:39:52.575Z,14.00
2022-11-09T01:45:19.391Z,14.00
2022-11-09T01:50:48.483Z,13.90
2022-11-09T01:55:53.237Z,13.90
2022-11-09T02:00:59.473Z,14.00
2022-11-09T02:06:04.788Z,14.00
2022-11-09T02:11:12.126Z,14.00
2022-11-09T02:16:15.046Z,14.10
2022-11-09T02:21:16.899Z,14.00
2022-11-09T02:26:42.535Z,14.10
2022-11-09T02:31:49.212Z,14.00
2022-11-09T02:36:51.319Z,14.00
2022-11-09T02:42:03.624Z,14.00
2022-11-09T02:47:06.394Z,13.90
2022-11-09T02:52:08.382Z,13.80
2022-11-09T02:57:10.282Z,13.70
2022-11-09T03:02:12.151Z,13.60
2022-11-09T03:07:13.960Z,13.60
2022-11-09T03:12:30.788Z,13.50
2022-11-09T03:17:33.415Z,13.40
2022-11-09T03:22:35.317Z,13.50
2022-11-09T03:27:37.101Z,13.40
2022-11-09T03:32:39.334Z,13.30
2022-11-09T03:37:41.107Z,13.30
2022-11-09T03:42:46.892Z,13.30
2022-11-09T03:47:48.892Z,13.20
2022-11-09T03:52:50.741Z,13.30
2022-11-09T03:57:52.620Z,13.30
2022-11-09T04:02:54.554Z,13.50
2022-11-09T04:07:57.983Z,13.40
2022-11-09T04:12:59.916Z,13.40
2022-11-09T04:18:03.634Z,13.40
2022-11-09T04:23:06.865Z,13.30
2022-11-09T04:28:11.719Z,13.30
2022-11-09T04:33:13.644Z,13.10
2022-11-09T04:38:15.381Z,13.20
2022-11-09T04:43:17.374Z,13.20
2022-11-09T04:48:19.283Z,13.00
2022-11-09T04:53:21.334Z,13.10
2022-11-09T04:58:25.142Z,13.00
2022-11-09T05:03:27.301Z,13.00
2022-11-09T05:08:29.332Z,13.00
2022-11-09T05:13:31.047Z,12.90
2022-11-09T05:18:32.776Z,12.90
2022-11-09T05:23:53.334Z,12.90
2022-11-09T05:28:55.189Z,12.90
2022-11-09T05:33:57.834Z,12.80
2022-11-09T05:39:00.609Z,12.70
2022-11-09T05:44:02.331Z,12.80
2022-11-09T05:49:04.085Z,12.60
2022-11-09T05:54:05.993Z,12.70
2022-11-09T05:59:08.741Z,12.70
2022-11-09T06:04:10.477Z,12.70
2022-11-09T06:09:12.378Z,12.50
2022-11-09T06:14:14.220Z,12.50
2022-11-09T06:19:15.972Z,12.50
2022-11-09T06:24:17.705Z,12.50
2022-11-09T06:29:19.900Z,12.50
2022-11-09T06:34:21.802Z,12.40
2022-11-09T06:39:23.524Z,12.40
2022-11-09T06:44:25.349Z,12.40
2022-11-09T06:49:27.059Z,12.40
2022-11-09T06:54:28.787Z,12.30
2022-11-09T06:59:30.762Z,12.40
2022-11-09T07:04:32.535Z,12.30
2022-11-09T07:09:34.276Z,12.30
2022-11-09T07:14:36.221Z,12.30
2022-11-09T07:19:37.895Z,12.30
2022-11-09T07:24:39.637Z,12.30
2022-11-09T07:29:41.351Z,12.30
2022-11-09T07:34:43.067Z,12.30
2022-11-09T07:39:44.896Z,12.30
2022-11-09T07:44:46.639Z,12.30
2022-11-09T07:49:48.419Z,12.50
2022-11-09T07:54:52.350Z,12.40
2022-11-09T07:59:54.434Z,12.40
2022-11-09T08:04:56.221Z,12.50
2022-11-09T08:09:58.537Z,12.50
2022-11-09T08:15:00.292Z,12.50
2022-11-09T08:20:02.420Z,12.70
2022-11-09T08:25:04.426Z,12.70
2022-11-09T08:30:08.362Z,12.80
2022-11-09T08:35:13.586Z,12.90
2022-11-09T08:40:18.231Z,13.00
2022-11-09T08:45:21.090Z,13.00
2022-11-09T08:50:22.972Z,13.10
2022-11-09T08:55:25.147Z,13.20
2022-11-09T09:00:27.340Z,13.30
2022-11-09T09:05:29.472Z,13.30
2022-11-09T09:10:32.454Z,13.40
2022-11-09T09:15:34.388Z,13.30
2022-11-09T09:20:36.201Z,13.40
2022-11-09T09:25:38.163Z,13.30
2022-11-09T09:30:40.048Z,13.40
2022-11-09T09:35:41.765Z,13.40
2022-11-09T09:41:17.916Z,13.60
2022-11-09T09:46:43.990Z,13.80
2022-11-09T09:51:53.825Z,13.80
2022-11-09T09:56:59.987Z,13.80
2022-11-09T10:02:02.116Z,13.80
2022-11-09T10:07:22.996Z,13.90
2022-11-09T10:12:48.636Z,14.10
2022-11-09T10:17:56.532Z,14.30
2022-11-09T10:23:17.086Z,14.40
2022-11-09T10:28:20.458Z,14.20
2022-11-09T10:33:23.322Z,14.40
2022-11-09T10:38:34.528Z,14.40
2022-11-09T10:43:36.257Z,14.30
2022-11-09T10:48:40.130Z,14.20
2022-11-09T10:53:41.856Z,14.40
2022-11-09T10:58:54.368Z,14.40
2022-11-09T11:03:57.351Z,14.60
2022-11-09T11:09:01.930Z,14.90
2022-11-09T11:14:23.076Z,14.70
2022-11-09T11:19:41.765Z,14.50
2022-11-09T11:24:57.316Z,14.20
2022-11-09T11:30:05.948Z,14.30
2022-11-09T11:35:21.840Z,14.30
2022-11-09T11:40:32.405Z,14.40
2022-11-09T11:45:42.065Z,14.30
2022-11-09T11:50:59.268Z,14.10
2022-11-09T11:56:22.633Z,14.00
2022-11-09T12:01:58.600Z,13.80
2022-11-09T12:07:18.513Z,13.80
2022-11-09T12:12:48.848Z,14.00
2022-11-09T12:18:14.761Z,14.00
2022-11-09T12:23:30.581Z,14.20
2022-11-09T12:29:07.046Z,14.10
2022-11-09T12:34:22.023Z,14.20
2022-11-09T12:40:06.547Z,14.20
2022-11-09T12:45:17.116Z,14.00
2022-11-09T12:50:23.918Z,13.70
2022-11-09T12:55:37.628Z,13.50
2022-11-09T13:00:41.071Z,12.90
2022-11-09T13:05:44.908Z,12.70
2022-11-09T13:10:46.742Z,12.60
2022-11-09T13:16:10.243Z,13.00
2022-11-09T13:21:21.425Z,13.00
2022-11-09T13:26:32.395Z,13.00
2022-11-09T13:32:12.478Z,13.30
2022-11-09T13:37:56.928Z,13.60
2022-11-09T13:43:09.817Z,14.30
2022-11-09T13:48:46.329Z,14.80
2022-11-09T13:53:59.434Z,15.50
2022-11-09T13:59:45.483Z,15.90
2022-11-09T14:04:47.291Z,15.30
2022-11-09T14:09:51.974Z,14.80
2022-11-09T14:15:15.205Z,14.40
2022-11-09T14:20:48.009Z,14.40
2022-11-09T14:25:50.365Z,14.30
2022-11-09T14:30:52.152Z,14.10
2022-11-09T14:35:59.129Z,14.10
2022-11-09T14:41:01.833Z,14.00
2022-11-09T14:46:06.552Z,13.60
2022-11-09T14:51:13.530Z,13.60
2022-11-09T14:56:20.570Z,13.40
2022-11-09T15:01:25.185Z,13.90
2022-11-09T15:06:29.039Z,13.40
2022-11-09T15:11:39.882Z,15.50
2022-11-09T15:16:42.217Z,14.10
2022-11-09T15:21:44.705Z,13.70
2022-11-09T15:26:48.878Z,13.40
2022-11-09T15:32:18.229Z,13.50
2022-11-09T15:37:26.269Z,13.30
2022-11-09T15:42:28.071Z,13.10
2022-11-09T15:47:37.360Z,13.20
2022-11-09T15:52:39.104Z,13.00
2022-11-09T15:57:41.847Z,12.90
2022-11-09T16:02:43.663Z,12.70
2022-11-09T16:07:52.983Z,12.60
2022-11-09T16:12:56.985Z,12.50
2022-11-09T16:17:59.063Z,12.50
2022-11-09T16:23:00.858Z,12.30
2022-11-09T16:28:02.615Z,12.30
2022-11-09T16:33:04.355Z,12.30
2022-11-09T16:38:06.277Z,12.20
2022-11-09T16:43:08.032Z,12.10
2022-11-09T16:48:11.716Z,12.00
2022-11-09T16:53:13.483Z,12.00
2022-11-09T16:58:15.226Z,11.90
2022-11-09T17:03:17.598Z,11.90
2022-11-09T17:08:19.833Z,12.00
2022-11-09T17:13:21.907Z,12.00
2022-11-09T17:18:23.972Z,12.00
2022-11-09T17:23:26.250Z,11.90
2022-11-09T17:28:28.592Z,11.90
2022-11-09T17:33:30.334Z,11.90
2022-11-09T17:38:32.447Z,11.80
2022-11-09T17:43:41.902Z,11.80
2022-11-09T17:48:45.208Z,12.00
2022-11-09T17:53:47.048Z,11.80
2022-11-09T17:58:48.867Z,11.70
2022-11-09T18:03:50.702Z,11.60
2022-11-09T18:09:19.335Z,11.60
2022-11-09T18:14:14.307Z,11.60
2022-11-09T18:19:16.295Z,11.60
2022-11-09T18:24:18.244Z,11.50
2022-11-09T18:29:20.355Z,11.50
2022-11-09T18:34:22.107Z,11.50
2022-11-09T18:39:26.610Z,11.50
2022-11-09T18:44:28.729Z,11.50
2022-11-09T18:49:30.533Z,11.40
2022-11-09T18:54:33.024Z,11.40
2022-11-09T18:59:37.686Z,11.40
2022-11-09T19:04:41.000Z,11.40
2022-11-09T19:09:42.854Z,11.40
2022-11-09T19:14:45.177Z,11.50
2022-11-09T19:19:47.191Z,11.40
2022-11-09T19:24:50.420Z,11.30
2022-11-09T19:29:52.313Z,11.30
2022-11-09T19:34:54.144Z,11.30
2022-11-09T19:39:56.033Z,11.30
2022-11-09T19:44:58.187Z,11.30
2022-11-09T19:50:00.163Z,11.20
2022-11-09T19:55:02.372Z,11.20
2022-11-09T20:00:04.593Z,11.20
2022-11-09T20:05:07.886Z,11.20
2022-11-09T20:10:12.417Z,11.10
2022-11-09T20:15:14.214Z,11.10
2022-11-09T20:20:16.481Z,11.20
2022-11-09T20:25:18.441Z,11.20
2022-11-09T20:30:22.766Z,11.20
2022-11-09T20:35:24.733Z,11.10
2022-11-09T20:40:26.548Z,11.10
2022-11-09T20:45:28.498Z,11.10
2022-11-09T20:50:30.269Z,11.20
2022-11-09T20:55:32.267Z,11.10
2022-11-09T21:00:34.032Z,11.10
2022-11-09T21:05:35.760Z,11.10
2022-11-09T21:10:37.482Z,11.10
2022-11-09T21:15:39.222Z,11.20
2022-11-09T21:20:41.205Z,11.20
2022-11-09T21:26:03.006Z,11.10
2022-11-09T21:31:04.795Z,11.10
2022-11-09T21:36:11.918Z,11.00
2022-11-09T21:41:33.970Z,11.00
2022-11-09T21:46:37.757Z,11.00
2022-11-09T21:51:40.903Z,10.90
2022-11-09T21:56:42.816Z,10.90
2022-11-09T22:01:45.396Z,10.90
2022-11-09T22:06:47.339Z,10.90
2022-11-09T22:12:07.592Z,10.90
2022-11-09T22:17:09.861Z,10.90
2022-11-09T22:22:12.666Z,10.90
2022-11-09T22:27:14.446Z,10.80
2022-11-09T22:32:16.193Z,10.80
2022-11-09T22:37:18.059Z,10.80
2022-11-09T22:42:20.027Z,10.70
2022-11-09T22:47:21.828Z,10.70
2022-11-09T22:52:23.607Z,10.70
2022-11-09T22:57:25.372Z,10.70
2022-11-09T23:02:28.362Z,10.70
2022-11-09T23:07:30.077Z,10.70
2022-11-09T23:12:34.970Z,10.60
2022-11-09T23:17:55.337Z,10.60
2022-11-09T23:22:57.205Z,10.60
2022-11-09T23:27:59.615Z,10.50
2022-11-09T23:33:02.402Z,10.60
2022-11-09T23:38:06.191Z,10.50
2022-11-09T23:43:11.000Z,10.50
2022-11-09T23:48:18.454Z,10.40
2022-11-09T23:53:20.824Z,10.40
2022-11-09T23:58:22.814Z,10.40
